createdAt,value
2016-02-24T00:00:02.876Z,969.63
2016-02-24T00:01:02.879Z,969.63
2016-02-24T00:02:02.881Z,969.64
2016-02-24T00:03:02.869Z,969.59
2016-02-24T00:04:02.872Z,969.61
2016-02-24T00:05:02.890Z,969.62
2016-02-24T00:06:02.861Z,969.58
2016-02-24T00:07:02.864Z,969.6
2016-02-24T00:08:02.867Z,969.59
2016-02-24T00:09:02.869Z,969.57
2016-02-24T00:10:02.857Z,969.56
2016-02-24T00:11:02.859Z,969.54
2016-02-24T00:12:02.877Z,969.56
2016-02-24T00:13:02.864Z,969.54
2016-02-24T00:14:02.868Z,969.55
2016-02-24T00:15:02.854Z,969.55
2016-02-24T00:16:02.856Z,969.53
2016-02-24T00:17:02.859Z,969.52
2016-02-24T00:18:02.846Z,969.52
2016-02-24T00:19:02.848Z,969.52
2016-02-24T00:20:02.852Z,969.54
2016-02-24T00:21:02.854Z,969.51
2016-02-24T00:22:02.842Z,969.53
2016-02-24T00:23:02.844Z,969.46
2016-02-24T00:24:02.848Z,969.5
2016-02-24T00:25:02.850Z,969.48
2016-02-24T00:26:02.853Z,969.47
2016-02-24T00:27:02.840Z,969.5
2016-02-24T00:28:02.842Z,969.6
2016-02-24T00:29:02.845Z,969.62
2016-02-24T00:30:02.848Z,969.67
2016-02-24T00:31:02.850Z,969.69
2016-02-24T00:32:02.837Z,969.68
2016-02-24T00:33:02.840Z,969.69
2016-02-24T00:34:02.842Z,969.7
2016-02-24T00:35:02.829Z,969.72
2016-02-24T00:36:02.838Z,969.72
2016-02-24T00:37:02.840Z,969.71
2016-02-24T00:38:02.827Z,969.76
2016-02-24T00:39:02.829Z,969.73
2016-02-24T00:40:02.832Z,969.72
2016-02-24T00:41:02.835Z,969.73
2016-02-24T00:42:02.821Z,969.71
2016-02-24T00:43:02.824Z,969.67
2016-02-24T00:44:02.827Z,969.7
2016-02-24T00:45:02.830Z,969.68
2016-02-24T00:46:02.818Z,969.68
2016-02-24T00:47:02.820Z,969.72
2016-02-24T00:48:02.823Z,969.7
2016-02-24T00:49:02.826Z,969.66
2016-02-24T00:50:02.812Z,969.68
2016-02-24T00:51:02.815Z,969.64
2016-02-24T00:52:02.817Z,969.61
2016-02-24T00:53:02.821Z,969.66
2016-02-24T00:54:02.808Z,969.61
2016-02-24T00:55:02.811Z,969.63
2016-02-24T00:56:02.813Z,969.64
2016-02-24T00:57:02.800Z,969.6
2016-02-24T00:58:02.802Z,969.64
2016-02-24T00:59:02.806Z,969.59
2016-02-24T01:00:02.808Z,969.59
2016-02-24T01:01:02.794Z,969.59
2016-02-24T01:02:02.798Z,969.58
2016-02-24T01:03:02.800Z,969.62
2016-02-24T01:04:02.803Z,969.63
2016-02-24T01:05:02.806Z,969.66
2016-02-24T01:06:02.794Z,969.64
2016-02-24T01:07:02.801Z,969.61
2016-02-24T01:08:02.788Z,969.61
2016-02-24T01:09:02.790Z,969.64
2016-02-24T01:10:02.793Z,969.63
2016-02-24T01:11:02.796Z,969.62
2016-02-24T01:12:02.782Z,969.65
2016-02-24T01:13:02.785Z,969.69
2016-02-24T01:14:02.787Z,969.67
2016-02-24T01:15:02.791Z,969.62
2016-02-24T01:16:02.793Z,969.69
2016-02-24T01:17:02.780Z,969.65
2016-02-24T01:18:02.783Z,969.67
2016-02-24T01:19:02.770Z,969.69
2016-02-24T01:20:02.789Z,969.72
2016-02-24T01:21:02.775Z,969.69
2016-02-24T01:22:02.778Z,969.65
2016-02-24T01:23:02.781Z,969.69
2016-02-24T01:24:02.768Z,969.68
2016-02-24T01:25:02.770Z,969.69
2016-02-24T01:26:02.773Z,969.66
2016-02-24T01:27:02.775Z,969.67
2016-02-24T01:28:02.779Z,969.67
2016-02-24T01:29:02.766Z,969.66
2016-02-24T01:30:02.769Z,969.66
2016-02-24T01:31:02.771Z,969.63
2016-02-24T01:32:02.758Z,969.64
2016-02-24T01:33:02.761Z,969.65
2016-02-24T01:34:02.764Z,969.64
2016-02-24T01:35:02.766Z,969.59
2016-02-24T01:36:02.754Z,969.54
2016-02-24T01:37:02.771Z,969.57
2016-02-24T01:38:02.760Z,969.58
2016-02-24T01:39:02.762Z,969.54
2016-02-24T01:40:02.765Z,969.58
2016-02-24T01:41:02.767Z,969.52
2016-02-24T01:42:02.754Z,969.55
2016-02-24T01:43:02.756Z,969.53
2016-02-24T01:44:02.744Z,969.48
2016-02-24T01:45:02.746Z,969.49
2016-02-24T01:46:02.764Z,969.53
2016-02-24T01:47:02.751Z,969.53
2016-02-24T01:48:02.770Z,969.52
2016-02-24T01:49:02.742Z,969.48
2016-02-24T01:50:02.744Z,969.51
2016-02-24T01:51:02.747Z,969.5
2016-02-24T01:52:02.750Z,969.51
2016-02-24T01:53:02.753Z,969.55
2016-02-24T01:54:02.740Z,969.53
2016-02-24T01:55:02.742Z,969.49
2016-02-24T01:56:02.744Z,969.53
2016-02-24T01:57:02.748Z,969.51
2016-02-24T01:58:02.734Z,969.5
2016-02-24T01:59:02.737Z,969.5
2016-02-24T02:00:02.740Z,969.48
2016-02-24T02:01:02.742Z,969.49
2016-02-24T02:02:02.730Z,969.5
2016-02-24T02:03:02.732Z,969.47
2016-02-24T02:04:02.735Z,969.53
2016-02-24T02:05:02.737Z,969.5
2016-02-24T02:06:02.740Z,969.5
2016-02-24T02:07:02.727Z,969.54
2016-02-24T02:08:02.730Z,969.56
2016-02-24T02:09:02.733Z,969.51
2016-02-24T02:10:02.720Z,969.54
2016-02-24T02:11:02.723Z,969.53
2016-02-24T02:12:02.726Z,969.49
2016-02-24T02:13:02.729Z,969.53
2016-02-24T02:14:02.715Z,969.47
2016-02-24T02:15:02.717Z,969.5
2016-02-24T02:16:02.721Z,969.51
2016-02-24T02:17:02.739Z,969.47
2016-02-24T02:18:02.710Z,969.52
2016-02-24T02:19:02.713Z,969.46
2016-02-24T02:20:02.715Z,969.54
2016-02-24T02:21:02.718Z,969.49
2016-02-24T02:22:02.721Z,969.47
2016-02-24T02:23:02.723Z,969.5
2016-02-24T02:24:02.711Z,969.46
2016-02-24T02:25:02.713Z,969.44
2016-02-24T02:26:02.717Z,969.47
2016-02-24T02:27:02.703Z,969.46
2016-02-24T02:28:02.706Z,969.41
2016-02-24T02:29:02.709Z,969.42
2016-02-24T02:30:02.712Z,969.44
2016-02-24T02:31:02.698Z,969.41
2016-02-24T02:32:02.701Z,969.38
2016-02-24T02:33:02.720Z,969.36
2016-02-24T02:34:02.706Z,969.38
2016-02-24T02:35:02.709Z,969.39
2016-02-24T02:36:02.696Z,969.4
2016-02-24T02:37:02.699Z,969.43
2016-02-24T02:38:02.701Z,969.43
2016-02-24T02:39:02.704Z,969.47
2016-02-24T02:40:02.691Z,969.41
2016-02-24T02:41:02.694Z,969.48
2016-02-24T02:42:02.696Z,969.44
2016-02-24T02:43:02.699Z,969.46
2016-02-24T02:44:02.687Z,969.46
2016-02-24T02:45:02.689Z,969.43
2016-02-24T02:46:02.692Z,969.47
2016-02-24T02:47:02.695Z,969.51
2016-02-24T02:48:02.682Z,969.43
2016-02-24T02:49:02.684Z,969.45
2016-02-24T02:50:02.687Z,969.47
2016-02-24T02:51:02.689Z,969.49
2016-02-24T02:52:02.693Z,969.45
2016-02-24T02:53:02.679Z,969.5
2016-02-24T02:54:02.681Z,969.43
2016-02-24T02:55:02.685Z,969.45
2016-02-24T02:56:02.687Z,969.5
2016-02-24T02:57:02.690Z,969.46
2016-02-24T02:58:02.678Z,969.4
2016-02-24T02:59:02.680Z,969.4
2016-02-24T03:00:02.697Z,969.39
2016-02-24T03:01:02.685Z,969.42
2016-02-24T03:02:02.672Z,969.41
2016-02-24T03:03:02.675Z,969.36
2016-02-24T03:04:02.677Z,969.37
2016-02-24T03:05:02.680Z,969.37
2016-02-24T03:06:02.683Z,969.35
2016-02-24T03:07:02.669Z,969.33
2016-02-24T03:08:02.673Z,969.31
2016-02-24T03:09:02.675Z,969.3
2016-02-24T03:10:02.678Z,969.34
2016-02-24T03:11:02.681Z,969.3
2016-02-24T03:12:02.683Z,969.3
2016-02-24T03:13:02.671Z,969.32
2016-02-24T03:14:02.674Z,969.31
2016-02-24T03:15:02.660Z,969.31
2016-02-24T03:16:02.664Z,969.34
2016-02-24T03:17:02.683Z,969.33
2016-02-24T03:18:02.686Z,969.35
2016-02-24T03:19:02.657Z,969.34
2016-02-24T03:20:02.674Z,969.34
2016-02-24T03:21:02.663Z,969.32
2016-02-24T03:22:02.665Z,969.34
2016-02-24T03:23:02.668Z,969.31
2016-02-24T03:24:02.654Z,969.25
2016-02-24T03:25:02.657Z,969.33
2016-02-24T03:26:02.659Z,969.37
2016-02-24T03:27:02.663Z,969.33
2016-02-24T03:28:02.649Z,969.33
2016-02-24T03:29:02.652Z,969.36
2016-02-24T03:30:02.654Z,969.38
2016-02-24T03:31:02.657Z,969.37
2016-02-24T03:32:02.645Z,969.38
2016-02-24T03:33:02.662Z,969.39
2016-02-24T03:34:02.650Z,969.41
2016-02-24T03:35:02.653Z,969.41
2016-02-24T03:36:02.655Z,969.48
2016-02-24T03:37:02.642Z,969.49
2016-02-24T03:38:02.661Z,969.47
2016-02-24T03:39:02.648Z,969.47
2016-02-24T03:40:02.648Z,969.44
2016-02-24T03:41:02.623Z,969.46
2016-02-24T03:42:02.629Z,969.52
2016-02-24T03:43:02.603Z,969.51
2016-02-24T03:44:02.594Z,969.48
2016-02-24T03:45:02.585Z,969.5
2016-02-24T03:46:02.570Z,969.5
2016-02-24T03:47:02.568Z,969.52
2016-02-24T03:48:02.566Z,969.49
2016-02-24T03:49:02.565Z,969.51
2016-02-24T03:50:02.563Z,969.47
2016-02-24T03:51:02.548Z,969.48
2016-02-24T03:52:02.566Z,969.48
2016-02-24T03:53:02.550Z,969.51
2016-02-24T03:54:02.552Z,969.48
2016-02-24T03:55:02.538Z,969.49
2016-02-24T03:56:02.540Z,969.49
2016-02-24T03:57:02.543Z,969.48
2016-02-24T03:58:02.544Z,969.48
2016-02-24T03:59:02.546Z,969.46
2016-02-24T04:00:02.532Z,969.48
2016-02-24T04:01:02.535Z,969.46
2016-02-24T04:02:02.537Z,969.45
2016-02-24T04:03:02.540Z,969.48
2016-02-24T04:04:02.526Z,969.4
2016-02-24T04:05:02.535Z,969.46
2016-02-24T04:06:02.537Z,969.46
2016-02-24T04:07:02.525Z,969.48
2016-02-24T04:08:02.528Z,969.46
2016-02-24T04:09:02.530Z,969.46
2016-02-24T04:10:02.533Z,969.44
2016-02-24T04:11:02.536Z,969.51
2016-02-24T04:12:02.522Z,969.47
2016-02-24T04:13:02.525Z,969.5
2016-02-24T04:14:02.528Z,969.47
2016-02-24T04:15:02.530Z,969.53
2016-02-24T04:16:02.517Z,969.47
2016-02-24T04:17:02.520Z,969.47
2016-02-24T04:18:02.522Z,969.51
2016-02-24T04:19:02.525Z,969.52
2016-02-24T04:20:02.512Z,969.5
2016-02-24T04:21:02.516Z,969.48
2016-02-24T04:22:02.518Z,969.51
2016-02-24T04:23:02.521Z,969.55
2016-02-24T04:24:02.524Z,969.54
2016-02-24T04:25:02.510Z,969.55
2016-02-24T04:26:02.513Z,969.56
2016-02-24T04:27:02.516Z,969.56
2016-02-24T04:28:02.519Z,969.58
2016-02-24T04:29:02.505Z,969.59
2016-02-24T04:30:02.507Z,969.6
2016-02-24T04:31:02.511Z,969.57
2016-02-24T04:32:02.513Z,969.57
2016-02-24T04:33:02.516Z,969.55
2016-02-24T04:34:02.504Z,969.56
2016-02-24T04:35:02.506Z,969.6
2016-02-24T04:36:02.508Z,969.58
2016-02-24T04:37:02.512Z,969.55
2016-02-24T04:38:02.514Z,969.59
2016-02-24T04:39:02.501Z,969.56
2016-02-24T04:40:02.503Z,969.53
2016-02-24T04:41:02.506Z,969.54
2016-02-24T04:42:02.509Z,969.57
2016-02-24T04:43:02.497Z,969.55
2016-02-24T04:44:02.500Z,969.52
2016-02-24T04:45:02.517Z,969.52
2016-02-24T04:46:02.504Z,969.49
2016-02-24T04:47:02.508Z,969.49
2016-02-24T04:48:02.494Z,969.48
2016-02-24T04:49:02.497Z,969.52
2016-02-24T04:50:02.499Z,969.54
2016-02-24T04:51:02.502Z,969.53
2016-02-24T04:52:02.505Z,969.51
2016-02-24T04:53:02.491Z,969.52
2016-02-24T04:54:02.499Z,969.5
2016-02-24T04:55:02.501Z,969.47
2016-02-24T04:56:02.503Z,969.48
2016-02-24T04:57:02.491Z,969.47
2016-02-24T04:58:02.494Z,969.48
2016-02-24T04:59:02.496Z,969.45
2016-02-24T05:00:02.499Z,969.44
2016-02-24T05:01:02.486Z,969.43
2016-02-24T05:02:02.489Z,969.42
2016-02-24T05:03:02.491Z,969.4
2016-02-24T05:04:02.494Z,969.4
2016-02-24T05:05:02.481Z,969.4
2016-02-24T05:06:02.483Z,969.41
2016-02-24T05:07:02.486Z,969.38
2016-02-24T05:08:02.489Z,969.38
2016-02-24T05:09:02.476Z,969.34
2016-02-24T05:10:02.479Z,969.33
2016-02-24T05:11:02.482Z,969.34
2016-02-24T05:12:02.485Z,969.34
2016-02-24T05:13:02.471Z,969.34
2016-02-24T05:14:02.474Z,969.34
2016-02-24T05:15:02.477Z,969.34
2016-02-24T05:16:02.480Z,969.31
2016-02-24T05:17:02.482Z,969.36
2016-02-24T05:18:02.470Z,969.35
2016-02-24T05:19:02.472Z,969.33
2016-02-24T05:20:02.475Z,969.39
2016-02-24T05:21:02.477Z,969.4
2016-02-24T05:22:02.465Z,969.37
2016-02-24T05:23:02.467Z,969.38
2016-02-24T05:24:02.470Z,969.37
2016-02-24T05:25:02.473Z,969.34
2016-02-24T05:26:02.475Z,969.36
2016-02-24T05:27:02.462Z,969.36
2016-02-24T05:28:02.465Z,969.36
2016-02-24T05:29:02.467Z,969.34
2016-02-24T05:30:02.470Z,969.35
2016-02-24T05:31:02.472Z,969.31
2016-02-24T05:32:02.475Z,969.32
2016-02-24T05:33:02.478Z,969.31
2016-02-24T05:34:02.465Z,969.29
2016-02-24T05:35:02.469Z,969.28
2016-02-24T05:36:02.471Z,969.31
2016-02-24T05:37:02.457Z,969.3
2016-02-24T05:38:02.461Z,969.31
2016-02-24T05:39:02.463Z,969.27
2016-02-24T05:40:02.466Z,969.28
2016-02-24T05:41:02.452Z,969.27
2016-02-24T05:42:02.455Z,969.27
2016-02-24T05:43:02.458Z,969.25
2016-02-24T05:44:02.460Z,969.24
2016-02-24T05:45:02.464Z,969.21
2016-02-24T05:46:02.451Z,969.22
2016-02-24T05:47:02.453Z,969.25
2016-02-24T05:48:02.456Z,969.27
2016-02-24T05:49:02.443Z,969.21
2016-02-24T05:50:02.446Z,969.24
2016-02-24T05:51:02.448Z,969.27
2016-02-24T05:52:02.451Z,969.23
2016-02-24T05:53:02.454Z,969.24
2016-02-24T05:54:02.442Z,969.25
2016-02-24T05:55:02.445Z,969.24
2016-02-24T05:56:02.447Z,969.25
2016-02-24T05:57:02.450Z,969.23
2016-02-24T05:58:02.467Z,969.25
2016-02-24T05:59:02.439Z,969.21
2016-02-24T06:00:02.441Z,969.27
2016-02-24T06:01:02.444Z,969.26
2016-02-24T06:02:02.446Z,969.3
2016-02-24T06:03:02.450Z,969.26
2016-02-24T06:04:02.436Z,969.25
2016-02-24T06:05:02.439Z,969.25
2016-02-24T06:06:02.442Z,969.27
2016-02-24T06:07:02.444Z,969.26
2016-02-24T06:08:02.432Z,969.27
2016-02-24T06:09:02.436Z,969.28
2016-02-24T06:10:02.438Z,969.29
2016-02-24T06:11:02.441Z,969.28
2016-02-24T06:12:02.428Z,969.3
2016-02-24T06:13:02.431Z,969.31
2016-02-24T06:14:02.449Z,969.29
2016-02-24T06:15:02.452Z,969.27
2016-02-24T06:16:02.439Z,969.25
2016-02-24T06:17:02.425Z,969.32
2016-02-24T06:18:02.428Z,969.29
2016-02-24T06:19:02.431Z,969.29
2016-02-24T06:20:02.434Z,969.32
2016-02-24T06:21:02.436Z,969.32
2016-02-24T06:22:02.424Z,969.34
2016-02-24T06:23:02.427Z,969.31
2016-02-24T06:24:02.429Z,969.29
2016-02-24T06:25:02.416Z,969.33
2016-02-24T06:26:02.418Z,969.31
2016-02-24T06:27:02.421Z,969.3
2016-02-24T06:28:02.423Z,969.34
2016-02-24T06:29:02.426Z,969.36
2016-02-24T06:30:02.413Z,969.35
2016-02-24T06:31:02.416Z,969.38
2016-02-24T06:32:02.419Z,969.38
2016-02-24T06:33:02.421Z,969.41
2016-02-24T06:34:02.424Z,969.4
2016-02-24T06:35:02.411Z,969.4
2016-02-24T06:36:02.415Z,969.42
2016-02-24T06:37:02.417Z,969.43
2016-02-24T06:38:02.420Z,969.39
2016-02-24T06:39:02.406Z,969.42
2016-02-24T06:40:02.425Z,969.44
2016-02-24T06:41:02.412Z,969.41
2016-02-24T06:42:02.414Z,969.41
2016-02-24T06:43:02.403Z,969.43
2016-02-24T06:44:02.404Z,969.44
2016-02-24T06:45:02.462Z,969.42
2016-02-24T06:46:02.403Z,969.44
2016-02-24T06:47:02.476Z,969.45
2016-02-24T06:48:02.391Z,969.5
2016-02-24T06:49:02.394Z,969.5
2016-02-24T06:50:02.397Z,969.53
2016-02-24T06:51:02.385Z,969.51
2016-02-24T06:52:02.387Z,969.54
2016-02-24T06:53:02.405Z,969.55
2016-02-24T06:54:02.393Z,969.57
2016-02-24T06:55:02.396Z,969.57
2016-02-24T06:56:02.398Z,969.58
2016-02-24T06:57:02.384Z,969.61
2016-02-24T06:58:02.388Z,969.6
2016-02-24T06:59:02.390Z,969.59
2016-02-24T07:00:02.393Z,969.61
2016-02-24T07:01:02.396Z,969.6
2016-02-24T07:02:02.383Z,969.62
2016-02-24T07:03:02.385Z,969.65
2016-02-24T07:04:02.387Z,969.63
2016-02-24T07:05:02.391Z,969.66
2016-02-24T07:06:02.393Z,969.6
2016-02-24T07:07:02.380Z,969.63
2016-02-24T07:08:02.384Z,969.61
2016-02-24T07:09:02.386Z,969.61
2016-02-24T07:10:02.377Z,969.62
2016-02-24T07:11:02.397Z,969.64
2016-02-24T07:12:02.383Z,969.6
2016-02-24T07:13:02.370Z,969.64
2016-02-24T07:14:02.372Z,969.64
2016-02-24T07:15:02.375Z,969.58
2016-02-24T07:16:02.378Z,969.59
2016-02-24T07:17:02.380Z,969.62
2016-02-24T07:18:02.384Z,969.64
2016-02-24T07:19:02.371Z,969.66
2016-02-24T07:20:02.373Z,969.65
2016-02-24T07:21:02.376Z,969.66
2016-02-24T07:22:02.379Z,969.65
2016-02-24T07:23:02.366Z,969.67
2016-02-24T07:24:02.368Z,969.67
2016-02-24T07:25:02.371Z,969.68
2016-02-24T07:26:02.374Z,969.68
2016-02-24T07:27:02.376Z,969.66
2016-02-24T07:28:02.364Z,969.65
2016-02-24T07:29:02.366Z,969.67
2016-02-24T07:30:02.369Z,969.68
2016-02-24T07:31:02.371Z,969.66
2016-02-24T07:32:02.374Z,969.69
2016-02-24T07:33:02.377Z,969.73
2016-02-24T07:34:02.364Z,969.73
2016-02-24T07:35:02.367Z,969.74
2016-02-24T07:36:02.369Z,969.71
2016-02-24T07:37:02.372Z,969.71
2016-02-24T07:38:02.359Z,969.69
2016-02-24T07:39:02.361Z,969.69
2016-02-24T07:40:02.364Z,969.7
2016-02-24T07:41:02.367Z,969.66
2016-02-24T07:42:02.369Z,969.69
2016-02-24T07:43:02.357Z,969.65
2016-02-24T07:44:02.360Z,969.69
2016-02-24T07:45:02.363Z,969.69
2016-02-24T07:46:02.365Z,969.68
2016-02-24T07:47:02.368Z,969.69
2016-02-24T07:48:02.355Z,969.7
2016-02-24T07:49:02.358Z,969.69
2016-02-24T07:50:02.360Z,969.65
2016-02-24T07:51:02.363Z,969.64
2016-02-24T07:52:02.366Z,969.64
2016-02-24T07:53:02.369Z,969.64
2016-02-24T07:54:02.355Z,969.65
2016-02-24T07:55:02.358Z,969.66
2016-02-24T07:56:02.361Z,969.67
2016-02-24T07:57:02.363Z,969.69
2016-02-24T07:58:02.366Z,969.69
2016-02-24T07:59:02.351Z,969.68
2016-02-24T08:00:02.354Z,969.71
2016-02-24T08:01:02.356Z,969.75
2016-02-24T08:02:02.359Z,969.77
2016-02-24T08:03:02.361Z,969.77
2016-02-24T08:04:02.380Z,969.8
2016-02-24T08:05:02.367Z,969.78
2016-02-24T08:06:02.353Z,969.8
2016-02-24T08:07:02.357Z,969.79
2016-02-24T08:08:02.359Z,969.77
2016-02-24T08:09:02.362Z,969.79
2016-02-24T08:10:02.364Z,969.77
2016-02-24T08:11:02.351Z,969.73
2016-02-24T08:12:02.354Z,969.72
2016-02-24T08:13:02.357Z,969.71
2016-02-24T08:14:02.359Z,969.66
2016-02-24T08:15:02.362Z,969.69
2016-02-24T08:16:02.364Z,969.66
2016-02-24T08:17:02.352Z,969.63
2016-02-24T08:18:02.354Z,969.63
2016-02-24T08:19:02.357Z,969.61
2016-02-24T08:20:02.360Z,969.67
2016-02-24T08:21:02.363Z,969.65
2016-02-24T08:22:02.349Z,969.66
2016-02-24T08:23:02.352Z,969.62
2016-02-24T08:24:02.355Z,969.63
2016-02-24T08:25:02.358Z,969.63
2016-02-24T08:26:02.360Z,969.56
2016-02-24T08:27:02.363Z,969.59
2016-02-24T08:28:02.351Z,969.59
2016-02-24T08:29:02.353Z,969.56
2016-02-24T08:30:02.357Z,969.55
2016-02-24T08:31:02.359Z,969.56
2016-02-24T08:32:02.361Z,969.53
2016-02-24T08:33:02.364Z,969.56
2016-02-24T08:34:02.367Z,969.56
2016-02-24T08:35:02.354Z,969.52
2016-02-24T08:36:02.356Z,969.51
2016-02-24T08:37:02.359Z,969.52
2016-02-24T08:38:02.362Z,969.52
2016-02-24T08:39:02.364Z,969.53
2016-02-24T08:40:02.367Z,969.53
2016-02-24T08:41:02.370Z,969.51
2016-02-24T08:42:02.372Z,969.51
2016-02-24T08:43:02.359Z,969.51
2016-02-24T08:44:02.362Z,969.49
2016-02-24T08:45:02.364Z,969.47
2016-02-24T08:46:02.367Z,969.42
2016-02-24T08:47:02.370Z,969.43
2016-02-24T08:48:02.373Z,969.42
2016-02-24T08:49:02.360Z,969.4
2016-02-24T08:50:02.363Z,969.38
2016-02-24T08:51:02.366Z,969.41
2016-02-24T08:52:02.368Z,969.39
2016-02-24T08:53:02.371Z,969.36
2016-02-24T08:54:02.374Z,969.37
2016-02-24T08:55:02.376Z,969.35
2016-02-24T08:56:02.379Z,969.35
2016-02-24T08:57:02.366Z,969.33
2016-02-24T08:58:02.385Z,969.33
2016-02-24T08:59:02.371Z,969.34
2016-02-24T09:00:02.374Z,969.36
2016-02-24T09:01:02.377Z,969.36
2016-02-24T09:02:02.379Z,969.36
2016-02-24T09:03:02.382Z,969.35
2016-02-24T09:04:02.385Z,969.28
2016-02-24T09:05:02.387Z,969.34
2016-02-24T09:06:02.374Z,969.3
2016-02-24T09:07:02.377Z,969.29
2016-02-24T09:08:02.395Z,969.26
2016-02-24T09:09:02.382Z,969.27
2016-02-24T09:10:02.385Z,969.26
2016-02-24T09:11:02.388Z,969.28
2016-02-24T09:12:02.406Z,969.23
2016-02-24T09:13:02.393Z,969.23
2016-02-24T09:14:02.396Z,969.19
2016-02-24T09:15:02.398Z,969.19
2016-02-24T09:16:02.400Z,969.15
2016-02-24T09:17:02.404Z,969.18
2016-02-24T09:18:02.391Z,969.17
2016-02-24T09:19:02.394Z,969.15
2016-02-24T09:20:02.397Z,969.15
2016-02-24T09:21:02.399Z,969.18
2016-02-24T09:22:02.402Z,969.17
2016-02-24T09:23:02.405Z,969.17
2016-02-24T09:24:02.407Z,969.17
2016-02-24T09:25:02.410Z,969.17
2016-02-24T09:26:02.412Z,969.11
2016-02-24T09:27:02.416Z,969.09
2016-02-24T09:28:02.418Z,969.11
2016-02-24T09:29:02.405Z,969.04
2016-02-24T09:30:02.424Z,969.05
2016-02-24T09:31:02.410Z,968.99
2016-02-24T09:32:02.413Z,968.98
2016-02-24T09:33:02.416Z,969
2016-02-24T09:34:02.418Z,968.97
2016-02-24T09:35:02.420Z,968.98
2016-02-24T09:36:02.423Z,969
2016-02-24T09:37:02.426Z,968.91
2016-02-24T09:38:02.429Z,968.95
2016-02-24T09:39:02.432Z,968.9
2016-02-24T09:40:02.419Z,968.88
2016-02-24T09:41:02.437Z,968.89
2016-02-24T09:42:02.424Z,968.89
2016-02-24T09:43:02.428Z,968.9
2016-02-24T09:44:02.430Z,968.91
2016-02-24T09:45:02.432Z,968.88
2016-02-24T09:46:02.436Z,968.86
2016-02-24T09:47:02.438Z,968.85
2016-02-24T09:48:02.441Z,968.85
2016-02-24T09:49:02.444Z,968.83
2016-02-24T09:50:02.446Z,968.76
2016-02-24T09:51:02.449Z,968.75
2016-02-24T09:52:02.452Z,968.72
2016-02-24T09:53:02.454Z,968.72
2016-02-24T09:54:02.441Z,968.69
2016-02-24T09:55:02.444Z,968.7
2016-02-24T09:56:02.463Z,968.69
2016-02-24T09:57:02.449Z,968.71
2016-02-24T09:58:02.452Z,968.67
2016-02-24T09:59:02.455Z,968.68
2016-02-24T10:00:02.457Z,968.67
2016-02-24T10:01:02.460Z,968.63
2016-02-24T10:02:02.462Z,968.65
2016-02-24T10:03:02.465Z,968.64
2016-02-24T10:04:02.467Z,968.62
2016-02-24T10:05:02.471Z,968.61
2016-02-24T10:06:02.473Z,968.59
2016-02-24T10:07:02.476Z,968.61
2016-02-24T10:08:02.479Z,968.6
2016-02-24T10:09:02.481Z,968.58
2016-02-24T10:10:02.468Z,968.56
2016-02-24T10:11:02.471Z,968.61
2016-02-24T10:12:02.489Z,968.56
2016-02-24T10:13:02.492Z,968.56
2016-02-24T10:14:02.479Z,968.53
2016-02-24T10:15:02.498Z,968.52
2016-02-24T10:16:02.687Z,968.49
2016-02-24T10:17:02.487Z,968.48
2016-02-24T10:18:02.490Z,968.48
2016-02-24T10:19:02.492Z,968.48
2016-02-24T10:20:02.495Z,968.47
2016-02-24T10:21:02.498Z,968.47
2016-02-24T10:22:02.500Z,968.44
2016-02-24T10:23:02.503Z,968.49
2016-02-24T10:24:02.506Z,968.5
2016-02-24T10:25:02.508Z,968.46
2016-02-24T10:26:02.511Z,968.44
2016-02-24T10:27:02.514Z,968.42
2016-02-24T10:28:02.516Z,968.44
2016-02-24T10:29:02.519Z,968.44
2016-02-24T10:30:02.507Z,968.47
2016-02-24T10:31:02.509Z,968.47
2016-02-24T10:32:02.512Z,968.44
2016-02-24T10:33:02.515Z,968.47
2016-02-24T10:34:02.517Z,968.45
2016-02-24T10:35:02.521Z,968.48
2016-02-24T10:36:02.523Z,968.46
2016-02-24T10:37:02.526Z,968.45
2016-02-24T10:38:02.528Z,968.43
2016-02-24T10:39:02.531Z,968.46
2016-02-24T10:40:02.534Z,968.42
2016-02-24T10:41:02.536Z,968.39
2016-02-24T10:42:02.539Z,968.41
2016-02-24T10:43:02.542Z,968.37
2016-02-24T10:44:02.544Z,968.34
2016-02-24T10:45:02.548Z,968.36
2016-02-24T10:46:02.550Z,968.32
2016-02-24T10:47:02.552Z,968.31
2016-02-24T10:48:02.539Z,968.29
2016-02-24T10:49:02.542Z,968.28
2016-02-24T10:50:02.544Z,968.28
2016-02-24T10:51:02.547Z,968.25
2016-02-24T10:52:02.550Z,968.27
2016-02-24T10:53:02.553Z,968.27
2016-02-24T10:54:02.556Z,968.23
2016-02-24T10:55:02.558Z,968.22
2016-02-24T10:56:02.560Z,968.2
2016-02-24T10:57:02.564Z,968.23
2016-02-24T10:58:02.566Z,968.17
2016-02-24T10:59:02.568Z,968.13
2016-02-24T11:00:02.572Z,968.15
2016-02-24T11:01:02.574Z,968.13
2016-02-24T11:02:02.577Z,968.09
2016-02-24T11:03:02.564Z,968.1
2016-02-24T11:04:02.566Z,968.07
2016-02-24T11:05:02.569Z,968.05
2016-02-24T11:06:02.572Z,967.99
2016-02-24T11:07:02.574Z,967.97
2016-02-24T11:08:02.577Z,967.93
2016-02-24T11:09:02.579Z,967.9
2016-02-24T11:10:02.582Z,967.9
2016-02-24T11:11:02.585Z,967.88
2016-02-24T11:12:02.588Z,967.81
2016-02-24T11:13:02.591Z,967.85
2016-02-24T11:14:02.594Z,967.82
2016-02-24T11:15:02.596Z,967.83
2016-02-24T11:16:02.599Z,967.85
2016-02-24T11:17:02.602Z,967.8
2016-02-24T11:18:02.604Z,967.78
2016-02-24T11:19:02.606Z,967.73
2016-02-24T11:20:02.610Z,967.76
2016-02-24T11:21:02.612Z,967.71
2016-02-24T11:22:02.599Z,967.71
2016-02-24T11:23:02.618Z,967.66
2016-02-24T11:24:02.605Z,967.68
2016-02-24T11:25:02.608Z,967.69
2016-02-24T11:26:02.610Z,967.67
2016-02-24T11:27:02.613Z,967.63
2016-02-24T11:28:02.616Z,967.65
2016-02-24T11:29:02.619Z,967.58
2016-02-24T11:30:02.621Z,967.58
2016-02-24T11:31:02.623Z,967.57
2016-02-24T11:32:02.627Z,967.56
2016-02-24T11:33:02.629Z,967.54
2016-02-24T11:34:02.631Z,967.56
2016-02-24T11:35:02.682Z,967.56
2016-02-24T11:36:02.621Z,967.55
2016-02-24T11:37:02.624Z,967.51
2016-02-24T11:38:02.643Z,967.51
2016-02-24T11:39:02.629Z,967.48
2016-02-24T11:40:02.632Z,967.49
2016-02-24T11:41:02.635Z,967.44
2016-02-24T11:42:02.637Z,967.44
2016-02-24T11:43:02.640Z,967.41
2016-02-24T11:44:02.643Z,967.44
2016-02-24T11:45:02.645Z,967.44
2016-02-24T11:46:02.648Z,967.4
2016-02-24T11:47:02.651Z,967.37
2016-02-24T11:48:02.653Z,967.35
2016-02-24T11:49:02.657Z,967.33
2016-02-24T11:50:02.644Z,967.33
2016-02-24T11:51:02.646Z,967.31
2016-02-24T11:52:02.649Z,967.27
2016-02-24T11:53:02.652Z,967.23
2016-02-24T11:54:02.655Z,967.2
2016-02-24T11:55:02.672Z,967.2
2016-02-24T11:56:02.660Z,967.19
2016-02-24T11:57:02.662Z,967.19
2016-02-24T11:58:02.666Z,967.17
2016-02-24T11:59:02.668Z,967.16
2016-02-24T12:00:02.670Z,967.19
2016-02-24T12:01:02.673Z,967.15
2016-02-24T12:02:02.676Z,967.12
2016-02-24T12:03:02.663Z,967.09
2016-02-24T12:04:02.666Z,967.05
2016-02-24T12:05:02.670Z,967.01
2016-02-24T12:06:02.673Z,967.01
2016-02-24T12:07:02.675Z,966.98
2016-02-24T12:08:02.678Z,966.97
2016-02-24T12:09:02.681Z,966.94
2016-02-24T12:10:02.684Z,966.91
2016-02-24T12:11:02.686Z,966.96
2016-02-24T12:12:02.689Z,966.94
2016-02-24T12:13:02.676Z,966.91
2016-02-24T12:14:02.678Z,966.89
2016-02-24T12:15:02.697Z,966.86
2016-02-24T12:16:02.684Z,966.84
2016-02-24T12:17:02.686Z,966.82
2016-02-24T12:18:02.689Z,966.79
2016-02-24T12:19:02.692Z,966.78
2016-02-24T12:20:02.695Z,966.79
2016-02-24T12:21:02.697Z,966.76
2016-02-24T12:22:02.700Z,966.73
2016-02-24T12:23:02.703Z,966.68
2016-02-24T12:24:02.705Z,966.65
2016-02-24T12:25:02.708Z,966.61
2016-02-24T12:26:02.711Z,966.6
2016-02-24T12:27:02.713Z,966.58
2016-02-24T12:28:02.701Z,966.52
2016-02-24T12:29:02.704Z,966.48
2016-02-24T12:30:02.706Z,966.4